Flight Track Log - Related Links

Times and Time Zones

All times are in EST time to prevent confusion due to time zone crossing. See the PDT4314 flight status page for this flight to view local times or setup timezone preferences in your user account.


Time Position Orientation Groundspeed Altitude Reporting Facility
EST Latitude Longitude Course Direction KTS MPH feet Rate Location/Type
Wed 09:28:00 PM 41.8033 -75.8476 180° South  Level Estimated
Wed 09:29:00 PM 41.7357 -75.8257 154° Southeast  Level Estimated
Wed 09:30:00 PM 41.6682 -75.8039 160° South  Level Estimated
Wed 09:31:00 PM 41.6007 -75.7822 159° South  Level Estimated
Wed 09:32:00 PM 41.5318 -75.7944 188° South  Level FlightAware Approximate
Wed 09:33:00 PM 41.4616 -75.7744 153° Southeast  Level FlightAware Approximate
Wed 09:34:00 PM 41.3965 -75.7423 161° South  Level FlightAware Approximate
Wed 09:35:00 PM 41.3307 -75.7124 161° South  Level FlightAware Approximate
Wed 09:36:00 PM 41.2649 -75.6826 162° South  Level FlightAware Approximate
Wed 09:37:00 PM 41.1990 -75.6536 162° South  Level FlightAware Approximate
Wed 09:38:00 PM 41.1330 -75.6247 162° South  Level FlightAware Approximate
Wed 09:39:00 PM 41.0670 -75.5959 162° South  Level FlightAware Approximate
Wed 09:40:00 PM 41.0010 -75.5671 162° South  Level FlightAware Approximate
Wed 09:41:00 PM 40.9353 -75.5374 163° South  Level FlightAware Approximate
Wed 09:42:00 PM 40.8688 -75.5107 163° South  Level FlightAware Approximate
Wed 09:43:00 PM 40.8023 -75.4842 163° South  Level FlightAware Approximate
Wed 09:44:00 PM 40.7358 -75.4576 163° South  Level FlightAware Approximate
Wed 09:45:00 PM 40.6679 -75.4613 190° South  Level FlightAware Approximate
Wed 09:45:57 PM 40.7833 -75.4667 190° South 240 276 6,900  Level Philadelphia TRACON
Wed 09:46:00 PM 40.5995 -75.4771 190° South  Level FlightAware Approximate
Wed 09:47:00 PM 40.5310 -75.4929 190° South  Level FlightAware Approximate
Wed 09:47:22 PM 40.6833 -75.4667 180° South 231 266 5,800  Level Philadelphia TRACON
Wed 09:48:00 PM 40.4623 -75.5063 187° South  Level FlightAware Approximate
Wed 09:48:22 PM 40.6333 -75.4833 194° South 222 255 5,200  Level Philadelphia TRACON
Wed 09:49:00 PM 40.3934 -75.5181 190° South  Level FlightAware Approximate
Wed 09:49:16 PM 40.5833 -75.5000 194° South 219 252 5,000  Level Philadelphia TRACON
Wed 09:50:00 PM 40.3249 -75.5334 190° South  Level FlightAware Approximate
Wed 09:50:28 PM 40.5000 -75.5000 180° South 222 255 5,000  Level Philadelphia TRACON
Wed 09:51:00 PM 40.2564 -75.5486 190° South  Level FlightAware Approximate
Wed 09:51:22 PM 40.4500 -75.5167 194° South 224 258 5,000  Level Philadelphia TRACON
Wed 09:52:22 PM 40.3833 -75.4667 150° Southeast 255 293 5,000  Level Philadelphia TRACON
Wed 09:53:16 PM 40.3333 -75.4333 153° Southeast 249 287 5,000  Level Philadelphia TRACON
Wed 09:54:16 PM 40.2667 -75.3833 150° Southeast 254 292 5,000  Level Philadelphia TRACON
Wed 09:55:16 PM 40.2167 -75.3333 143° Southeast 256 295 5,000  Level Philadelphia TRACON
Wed 09:56:10 PM 40.1500 -75.3000 159° South 262 302 5,000  Level Philadelphia TRACON
Wed 09:57:10 PM 40.1000 -75.2333 134° Southeast 255 293 5,000  Level Philadelphia TRACON
Wed 09:58:10 PM 40.0667 -75.1500 118° Southeast 254 292 5,000 -53 Level Philadelphia TRACON
Wed 09:59:04 PM 40.0500 -75.0833 108° East 238 274 4,900 -500 Descending Philadelphia TRACON
Wed 10:00:10 PM 40.0333 -74.9833 102° East 226 260 4,000 -409 Descending Philadelphia TRACON
Wed 10:01:16 PM 40.0000 -74.9333 131° Southeast 229 264 4,000  Level Philadelphia TRACON
Wed 10:02:16 PM 39.9500 -74.9667 207° Southwest 163 188 4,000 -200 Level Philadelphia TRACON
Wed 10:03:16 PM 39.9333 -75.0167 247° West 161 185 3,600 -650 Descending Philadelphia TRACON
Wed 10:04:16 PM 39.9167 -75.0667 247° West 141 162 2,700 -900 Descending Philadelphia TRACON
Wed 10:05:16 PM 39.9000 -75.1167 247° West 153 176 1,800 -850 Descending Philadelphia TRACON
Wed 10:06:16 PM 39.9000 -75.1500 270° West 116 133 1,000 -700 Descending Philadelphia TRACON
Wed 10:07:16 PM 39.8833 -75.2000 247° West 109 125 400 -600 Descending Philadelphia TRACON
Wed 10:09:00 PM 39.8667 -75.2333 252° West  Level FlightAware Approximate
Wed 10:16:00 PM 39.8722 -75.2409 252° West  Level Estimated

Login

Don't have an account? Register now (free) for customized features, flight alerts, and more!